Time;durP1;ratioP1;P1;durP2;ratioP2;P2;SDS_P1;SDS_P2;PMS_P1;PMS_P2;Temp;Humidity;BMP_temperature;BMP_pressure;BME280_temperature;BME280_humidity;BME280_pressure;Samples;Min_cycle;Max_cycle;Signal;HPM_P1;HPM_P2
2022/11/06 00:00:18;;;;;;;2.37;2.17;;;11.10;99.90;;;;;;4971721;28;20208;-92
2022/11/06 00:02:44;;;;;;;6.23;2.03;;;11.10;99.90;;;;;;4988676;28;20323;-92
2022/11/06 00:07:55;;;;;;;2.60;2.40;;;11.10;99.90;;;;;;4988088;28;20212;-92
2022/11/06 00:10:21;;;;;;;3.07;2.80;;;11.00;99.90;;;;;;4956389;28;20745;-93
2022/11/06 00:12:47;;;;;;;4.43;2.97;;;11.00;99.90;;;;;;4986769;28;20212;-93
2022/11/06 00:15:13;;;;;;;4.57;2.73;;;11.10;99.90;;;;;;4972356;28;20200;-92
2022/11/06 00:17:39;;;;;;;3.23;2.87;;;11.00;99.90;;;;;;4971767;28;20228;-93
2022/11/06 00:20:06;;;;;;;3.23;2.77;;;11.10;99.90;;;;;;4955746;28;20240;-91
2022/11/06 00:22:33;;;;;;;5.13;3.13;;;11.10;99.90;;;;;;4971759;28;20238;-92
2022/11/06 00:24:59;;;;;;;3.30;2.70;;;11.10;99.90;;;;;;5003827;28;20211;-92
2022/11/06 00:27:25;;;;;;;2.77;2.50;;;11.10;99.90;;;;;;4971696;28;20216;-92
2022/11/06 00:29:50;;;;;;;6.17;3.43;;;11.10;99.90;;;;;;4956118;28;20279;-93
2022/11/06 00:32:16;;;;;;;2.63;1.53;;;11.10;99.90;;;;;;4955174;28;20227;-93
2022/11/06 00:34:42;;;;;;;2.37;2.17;;;11.10;99.90;;;;;;4954941;28;20219;-91
2022/11/06 00:37:08;;;;;;;4.97;2.57;;;11.10;99.90;;;;;;4955057;28;20220;-92
2022/11/06 00:39:33;;;;;;;12.03;2.40;;;11.10;99.90;;;;;;4955459;28;20255;-92
2022/11/06 00:41:59;;;;;;;3.63;2.97;;;11.20;99.90;;;;;;4971870;28;20189;-93
2022/11/06 00:44:25;;;;;;;2.30;2.07;;;11.20;99.90;;;;;;4972173;28;20188;-92
2022/11/06 00:46:51;;;;;;;2.73;1.70;;;11.20;99.90;;;;;;4971607;28;20302;-92
2022/11/06 00:49:16;;;;;;;8.13;2.83;;;11.20;99.90;;;;;;4955105;28;20650;-92
2022/11/06 00:51:42;;;;;;;3.93;2.70;;;11.30;99.90;;;;;;4955435;28;20216;-92
2022/11/06 00:54:10;;;;;;;3.83;2.33;;;11.30;99.90;;;;;;4987937;28;20952;-92
2022/11/06 00:56:36;;;;;;;4.60;2.87;;;11.30;99.90;;;;;;4987413;28;20199;-91
2022/11/06 00:59:06;;;;;;;5.47;3.13;;;11.30;99.90;;;;;;4987474;28;20227;-91
2022/11/06 01:01:38;;;;;;;2.50;2.30;;;11.30;99.90;;;;;;4970876;28;20599;-92
2022/11/06 01:04:10;;;;;;;2.27;1.97;;;11.30;99.90;;;;;;4971169;28;20259;-91
2022/11/06 01:06:39;;;;;;;4.03;3.63;;;11.30;99.90;;;;;;5003733;28;20227;-92
2022/11/06 01:09:06;;;;;;;7.47;4.03;;;11.40;99.90;;;;;;4987565;28;20187;-92
2022/11/06 01:11:39;;;;;;;4.00;2.93;;;11.40;99.90;;;;;;5003636;28;20195;-92
2022/11/06 01:14:06;;;;;;;3.03;2.63;;;11.40;99.90;;;;;;4987380;28;20761;-92
2022/11/06 01:16:32;;;;;;;3.20;2.90;;;11.40;99.90;;;;;;4970813;28;20235;-92
2022/11/06 01:18:58;;;;;;;4.73;3.70;;;11.40;99.90;;;;;;4971221;28;20227;-92
2022/11/06 01:21:27;;;;;;;4.23;2.90;;;11.40;99.90;;;;;;4987063;28;20258;-91
2022/11/06 01:23:56;;;;;;;8.27;2.90;;;11.30;99.90;;;;;;4987740;28;20210;-92
2022/11/06 01:26:22;;;;;;;6.00;3.00;;;11.30;99.90;;;;;;4987454;28;20219;-92
2022/11/06 01:28:48;;;;;;;5.60;4.87;;;11.40;99.90;;;;;;4987156;28;20714;-91
2022/11/06 01:31:18;;;;;;;5.57;2.77;;;11.40;99.90;;;;;;4971433;28;20215;-92
2022/11/06 01:33:44;;;;;;;4.57;3.30;;;11.40;99.90;;;;;;4987333;28;20741;-91
2022/11/06 01:36:13;;;;;;;2.73;2.50;;;11.30;99.90;;;;;;4987453;28;20548;-92
2022/11/06 01:38:44;;;;;;;4.23;3.20;;;11.40;99.90;;;;;;4987709;28;20188;-92
2022/11/06 01:41:15;;;;;;;1.17;0.90;;;11.40;99.90;;;;;;4971068;28;21044;-92
2022/11/06 01:43:58;;;;;;;3.07;1.97;;;11.40;99.90;;;;;;4986506;28;20234;-91
2022/11/06 01:46:27;;;;;;;4.13;3.60;;;11.30;99.90;;;;;;4990537;28;20212;-92
2022/11/06 01:48:58;;;;;;;4.23;3.03;;;11.40;99.90;;;;;;4990389;28;20216;-92
2022/11/06 01:51:26;;;;;;;5.40;2.53;;;11.40;99.90;;;;;;5007285;28;20707;-92
2022/11/06 01:53:53;;;;;;;3.37;3.07;;;11.40;99.90;;;;;;4991080;28;20195;-91
2022/11/06 01:56:20;;;;;;;10.87;3.67;;;11.40;99.90;;;;;;4958544;28;20212;-91
2022/11/06 01:58:49;;;;;;;4.73;4.33;;;11.40;99.90;;;;;;4990562;28;20653;-91
2022/11/06 02:01:15;;;;;;;7.33;3.40;;;11.40;99.90;;;;;;5006978;28;20216;-92
2022/11/06 02:03:55;;;;;;;2.83;2.50;;;11.50;99.90;;;;;;4974187;28;20303;-91
2022/11/06 02:06:21;;;;;;;3.60;3.00;;;11.50;99.90;;;;;;5006733;28;20724;-92
2022/11/06 02:08:47;;;;;;;11.83;4.57;;;11.50;99.90;;;;;;4958882;28;20195;-92
2022/11/06 02:11:13;;;;;;;5.77;4.33;;;11.50;99.90;;;;;;4958290;28;20339;-91
2022/11/06 02:13:47;;;;;;;4.73;3.13;;;11.50;99.90;;;;;;4974457;28;20224;-92
2022/11/06 02:16:37;;;;;;;9.53;3.13;;;11.50;99.90;;;;;;5006677;28;20212;-91
2022/11/06 02:19:09;;;;;;;5.27;3.93;;;11.50;99.90;;;;;;4990195;28;20208;-92
2022/11/06 02:22:03;;;;;;;2.27;2.03;;;11.50;99.90;;;;;;4989890;28;20266;-92
2022/11/06 02:24:50;;;;;;;2.93;2.50;;;11.50;99.90;;;;;;4990091;28;20251;-91
2022/11/06 02:27:20;;;;;;;6.30;4.10;;;11.50;99.90;;;;;;5006566;28;20230;-92
2022/11/06 02:29:50;;;;;;;6.40;3.43;;;11.50;99.90;;;;;;4991842;28;20191;-91
2022/11/06 02:32:40;;;;;;;8.53;4.33;;;11.50;99.90;;;;;;4990094;28;20581;-92
2022/11/06 02:35:15;;;;;;;4.83;3.47;;;11.50;99.90;;;;;;4989622;28;20221;-92
2022/11/06 02:37:44;;;;;;;3.00;2.03;;;11.50;99.90;;;;;;5006442;28;20223;-92
2022/11/06 02:40:13;;;;;;;5.00;4.43;;;11.50;99.90;;;;;;4990864;28;20219;-91
2022/11/06 02:42:43;;;;;;;11.10;5.87;;;11.50;99.90;;;;;;5006274;28;20705;-91
2022/11/06 02:45:11;;;;;;;4.73;3.93;;;11.50;99.90;;;;;;4990235;28;20180;-91
2022/11/06 02:47:38;;;;;;;4.03;3.57;;;11.50;99.90;;;;;;4990789;28;20273;-92
2022/11/06 02:50:07;;;;;;;6.40;4.37;;;11.50;99.90;;;;;;4973445;28;20226;-92
2022/11/06 02:52:39;;;;;;;3.07;2.80;;;11.50;99.90;;;;;;4990253;28;20227;-93
2022/11/06 02:55:18;;;;;;;4.33;3.47;;;11.50;99.90;;;;;;4989871;28;20239;-92
2022/11/06 02:57:59;;;;;;;3.63;3.03;;;11.50;99.90;;;;;;4989695;28;20277;-92
2022/11/06 03:00:26;;;;;;;6.37;3.07;;;11.60;99.90;;;;;;4989324;28;21179;-91
2022/11/06 03:03:05;;;;;;;9.93;4.20;;;11.60;99.90;;;;;;4974257;28;20216;-92
2022/11/06 03:05:39;;;;;;;3.03;2.50;;;11.60;99.90;;;;;;4990124;28;20746;-93
2022/11/06 03:08:12;;;;;;;5.27;3.20;;;11.60;99.90;;;;;;4989638;28;20223;-91
2022/11/06 03:11:12;;;;;;;4.63;3.13;;;11.60;99.90;;;;;;4989163;28;20231;-92
2022/11/06 03:13:51;;;;;;;2.77;2.23;;;11.60;99.90;;;;;;5004623;28;20628;-92
2022/11/06 03:16:43;;;;;;;3.47;3.17;;;11.60;99.90;;;;;;5005754;28;20318;-91
2022/11/06 03:19:26;;;;;;;5.93;4.27;;;11.60;99.90;;;;;;4986348;28;20255;-92
2022/11/06 03:22:09;;;;;;;4.00;3.33;;;11.60;99.90;;;;;;4989622;28;20240;-91
2022/11/06 03:24:50;;;;;;;8.07;4.20;;;11.60;99.90;;;;;;5005326;28;20236;-91
2022/11/06 03:27:24;;;;;;;7.23;5.70;;;11.60;99.90;;;;;;5005686;28;21229;-91
2022/11/06 03:29:59;;;;;;;4.20;2.70;;;11.60;99.90;;;;;;4989764;28;20184;-91
2022/11/06 03:32:31;;;;;;;4.80;3.63;;;11.60;99.90;;;;;;4989608;28;20243;-92
2022/11/06 03:35:09;;;;;;;6.43;4.20;;;11.60;99.90;;;;;;4988737;28;20247;-91
2022/11/06 03:37:46;;;;;;;3.97;3.67;;;11.60;99.90;;;;;;4989052;28;20212;-91
2022/11/06 03:40:16;;;;;;;3.33;2.93;;;11.60;99.90;;;;;;4988765;28;20239;-91
2022/11/06 03:42:45;;;;;;;4.70;2.73;;;11.60;99.90;;;;;;4988972;28;20228;-91
2022/11/06 03:45:19;;;;;;;2.83;2.57;;;11.60;99.90;;;;;;4990100;28;20299;-91
2022/11/06 03:47:52;;;;;;;9.43;3.90;;;11.60;99.90;;;;;;5005404;28;20929;-91
2022/11/06 03:50:24;;;;;;;14.23;3.60;;;11.60;99.90;;;;;;4989267;28;20215;-91
2022/11/06 03:53:13;;;;;;;4.40;3.77;;;11.60;99.90;;;;;;4988557;28;20227;-92
2022/11/06 03:55:48;;;;;;;3.13;2.87;;;11.60;99.90;;;;;;4989696;28;20227;-93
2022/11/06 03:58:19;;;;;;;8.10;5.30;;;11.60;99.90;;;;;;4988541;28;20226;-91
2022/11/06 04:00:46;;;;;;;5.33;3.80;;;11.70;99.90;;;;;;4988361;28;20286;-92
2022/11/06 04:03:21;;;;;;;4.23;3.17;;;11.70;99.90;;;;;;4956502;28;20216;-92
2022/11/06 04:05:59;;;;;;;5.87;2.70;;;11.70;99.90;;;;;;5004899;28;20231;-92
2022/11/06 04:14:04;;;;;;;5.37;4.50;;;11.70;99.90;;;;;;4988775;28;20224;-92
2022/11/06 04:16:34;;;;;;;5.67;3.93;;;11.70;99.90;;;;;;4972590;28;21056;-91
2022/11/06 04:19:01;;;;;;;5.33;3.73;;;11.70;99.90;;;;;;4988380;28;20219;-92
2022/11/06 04:22:03;;;;;;;7.53;5.63;;;11.70;99.90;;;;;;4972121;28;20633;-92
2022/11/06 04:28:33;;;;;;;7.53;3.70;;;11.70;99.90;;;;;;4989044;28;20740;-91
2022/11/06 04:31:33;;;;;;;4.73;3.67;;;11.70;99.90;;;;;;4987859;28;20271;-91
2022/11/06 04:34:06;;;;;;;4.17;2.83;;;11.70;99.90;;;;;;4988092;28;20238;-91
2022/11/06 04:36:48;;;;;;;5.53;3.40;;;11.70;99.90;;;;;;4988345;28;20228;-92
2022/11/06 04:39:39;;;;;;;7.87;3.57;;;11.70;99.90;;;;;;4987974;28;20190;-91
2022/11/06 04:42:31;;;;;;;4.93;3.37;;;11.70;99.90;;;;;;4988191;28;20296;-94
2022/11/06 04:45:09;;;;;;;4.80;3.50;;;11.70;99.90;;;;;;4987565;28;20168;-92
2022/11/06 04:47:37;;;;;;;4.37;3.23;;;11.70;99.90;;;;;;4988477;28;20195;-92
2022/11/06 04:50:06;;;;;;;4.07;3.67;;;11.70;99.90;;;;;;4987191;28;20216;-92
2022/11/06 04:52:33;;;;;;;9.53;3.70;;;11.70;99.90;;;;;;4987803;28;20723;-91
2022/11/06 04:54:59;;;;;;;4.73;3.70;;;11.70;99.90;;;;;;4971985;28;20219;-91
2022/11/06 04:57:25;;;;;;;5.77;4.43;;;11.70;99.90;;;;;;4955752;28;20215;-92
2022/11/06 04:59:51;;;;;;;4.53;3.90;;;11.70;99.90;;;;;;4988059;28;20188;-91
2022/11/06 05:02:17;;;;;;;2.60;2.33;;;11.70;99.90;;;;;;4987638;28;20212;-91
2022/11/06 05:04:44;;;;;;;4.97;3.97;;;11.70;99.90;;;;;;4971253;28;20254;-91
2022/11/06 05:07:13;;;;;;;4.87;4.37;;;11.70;99.90;;;;;;4971734;28;20208;-93
2022/11/06 05:09:40;;;;;;;5.50;4.30;;;11.70;99.90;;;;;;4987713;28;20222;-92
2022/11/06 05:12:06;;;;;;;3.53;3.23;;;11.70;99.90;;;;;;4971569;28;20184;-92
2022/11/06 05:14:32;;;;;;;4.60;3.07;;;11.70;99.90;;;;;;4972028;28;20688;-91
2022/11/06 05:16:58;;;;;;;5.80;3.70;;;11.70;99.90;;;;;;4955447;28;20315;-92
2022/11/06 05:19:24;;;;;;;4.43;4.03;;;11.70;99.90;;;;;;4989701;28;20568;-92
2022/11/06 05:24:34;;;;;;;3.40;2.77;;;11.70;99.90;;;;;;4978399;28;20231;-93
2022/11/06 05:26:59;;;;;;;6.37;3.33;;;11.70;99.90;;;;;;4975879;28;20214;-92
2022/11/06 05:29:26;;;;;;;4.73;4.10;;;11.70;99.90;;;;;;4959977;28;20188;-92
2022/11/06 05:31:52;;;;;;;7.40;3.57;;;11.70;99.90;;;;;;4991740;28;20226;-91
2022/11/06 05:34:17;;;;;;;3.93;3.50;;;11.70;99.90;;;;;;4991160;28;20211;-91
2022/11/06 05:36:43;;;;;;;5.30;2.60;;;11.70;99.90;;;;;;4959564;28;20224;-91
2022/11/06 05:39:09;;;;;;;6.10;4.37;;;11.70;99.90;;;;;;4959341;28;20560;-92
2022/11/06 05:41:35;;;;;;;4.40;3.33;;;11.70;99.90;;;;;;4959977;28;20203;-91
2022/11/06 05:44:01;;;;;;;6.47;4.37;;;11.70;99.90;;;;;;4975139;28;20319;-91
2022/11/06 05:46:27;;;;;;;3.80;2.87;;;11.80;99.90;;;;;;4958772;28;20298;-92
2022/11/06 05:48:53;;;;;;;5.63;3.93;;;11.70;99.90;;;;;;4974643;28;20218;-90
2022/11/06 05:51:19;;;;;;;4.40;3.57;;;11.70;99.90;;;;;;4958886;28;20727;-91
2022/11/06 05:53:45;;;;;;;4.93;3.47;;;11.70;99.90;;;;;;4959128;28;20192;-91
2022/11/06 05:56:11;;;;;;;3.67;2.70;;;11.70;99.90;;;;;;4958443;28;20216;-91
2022/11/06 05:58:36;;;;;;;4.90;3.20;;;11.70;99.90;;;;;;4990342;28;20226;-91
2022/11/06 06:01:03;;;;;;;7.83;3.10;;;11.70;99.90;;;;;;4957716;28;20211;-91
2022/11/06 06:03:28;;;;;;;3.97;3.53;;;11.70;99.90;;;;;;4974425;28;20335;-92
2022/11/06 06:05:54;;;;;;;7.23;2.90;;;11.70;99.90;;;;;;4975064;28;20283;-93
2022/11/06 06:08:20;;;;;;;5.67;4.50;;;11.70;99.90;;;;;;4973761;28;20224;-92
2022/11/06 06:10:46;;;;;;;5.67;2.93;;;11.60;99.90;;;;;;4957951;28;20215;-91
2022/11/06 06:13:13;;;;;;;6.17;4.27;;;11.60;99.90;;;;;;4990371;28;20251;-92
2022/11/06 06:15:40;;;;;;;4.53;3.03;;;11.60;99.90;;;;;;4974148;28;20219;-92
2022/11/06 06:18:07;;;;;;;5.17;4.50;;;11.60;99.90;;;;;;4989796;28;20192;-92
2022/11/06 06:20:36;;;;;;;5.43;3.77;;;11.60;99.90;;;;;;4974562;28;20240;-91
2022/11/06 06:23:02;;;;;;;5.33;3.83;;;11.60;99.90;;;;;;5006100;28;20255;-92
2022/11/06 06:25:29;;;;;;;2.83;2.23;;;11.60;99.90;;;;;;4974292;28;20304;-92
2022/11/06 06:27:55;;;;;;;5.73;3.93;;;11.60;99.90;;;;;;4974362;28;20204;-91
2022/11/06 06:30:22;;;;;;;6.87;2.60;;;11.50;99.90;;;;;;4988710;28;20208;-92
2022/11/06 06:32:48;;;;;;;3.87;2.70;;;11.50;99.90;;;;;;4990243;28;20199;-92
2022/11/06 06:35:14;;;;;;;4.33;3.10;;;11.50;99.90;;;;;;4973357;28;20251;-91
2022/11/06 06:37:40;;;;;;;4.63;2.80;;;11.50;99.90;;;;;;4957125;28;20633;-91
2022/11/06 06:40:06;;;;;;;5.67;2.70;;;11.50;99.90;;;;;;4957559;28;20688;-92
2022/11/06 06:42:32;;;;;;;4.17;3.67;;;11.50;99.90;;;;;;4957392;28;20274;-91
2022/11/06 06:44:57;;;;;;;4.27;2.30;;;11.50;99.90;;;;;;4973705;28;20181;-91
2022/11/06 06:47:23;;;;;;;4.93;3.27;;;11.50;99.90;;;;;;4958475;28;20267;-91
2022/11/06 06:49:49;;;;;;;3.57;2.57;;;11.50;99.90;;;;;;4989155;28;20216;-91
2022/11/06 06:52:15;;;;;;;4.23;3.83;;;11.40;99.90;;;;;;4957974;28;20246;-91
2022/11/06 06:54:40;;;;;;;2.17;1.97;;;11.40;99.90;;;;;;4972942;28;20266;-91
2022/11/06 06:57:07;;;;;;;3.43;2.57;;;11.40;99.90;;;;;;4957253;28;20247;-90
2022/11/06 06:59:33;;;;;;;2.70;2.20;;;11.40;99.90;;;;;;5005799;28;20209;-91
2022/11/06 07:02:02;;;;;;;4.37;3.33;;;11.40;99.90;;;;;;4989004;28;20287;-91
2022/11/06 07:04:28;;;;;;;9.97;5.60;;;11.30;99.90;;;;;;4972890;28;20234;-90
2022/11/06 07:06:54;;;;;;;3.50;2.83;;;11.30;99.90;;;;;;4956982;28;20228;-92
2022/11/06 07:09:21;;;;;;;9.17;4.17;;;11.30;99.90;;;;;;4989113;28;20579;-94
2022/11/06 07:11:57;;;;;;;4.83;3.67;;;11.30;99.90;;;;;;4989581;28;20246;-93
2022/11/06 07:14:23;;;;;;;3.77;2.53;;;11.40;99.90;;;;;;4989060;28;20293;-92
2022/11/06 07:16:48;;;;;;;7.77;4.60;;;11.40;99.90;;;;;;4973153;28;20212;-92
2022/11/06 07:19:14;;;;;;;3.57;2.73;;;11.30;99.90;;;;;;4972006;28;20216;-90
2022/11/06 07:21:40;;;;;;;7.33;3.70;;;11.30;99.90;;;;;;4972192;28;20259;-90
2022/11/06 07:24:06;;;;;;;4.87;3.20;;;11.30;99.90;;;;;;4956574;28;20200;-91
2022/11/06 07:26:32;;;;;;;10.63;4.93;;;11.30;99.90;;;;;;4957083;28;20196;-91
2022/11/06 07:28:57;;;;;;;9.27;6.07;;;11.30;99.90;;;;;;4957707;28;20298;-93
2022/11/06 07:31:23;;;;;;;12.57;3.70;;;11.30;99.90;;;;;;4989596;28;20212;-91
2022/11/06 07:33:49;;;;;;;6.57;3.73;;;11.30;99.90;;;;;;4956975;28;20233;-89
2022/11/06 07:36:15;;;;;;;4.97;3.47;;;11.30;99.90;;;;;;4956246;28;20188;-90
2022/11/06 07:38:42;;;;;;;4.03;3.67;;;11.30;99.90;;;;;;4989604;28;20188;-93
2022/11/06 07:41:11;;;;;;;4.53;3.50;;;11.30;99.90;;;;;;4988167;28;20215;-93
2022/11/06 07:43:38;;;;;;;4.33;3.83;;;11.30;99.90;;;;;;4987021;28;20231;-92
2022/11/06 07:46:05;;;;;;;2.97;2.77;;;11.30;99.90;;;;;;4971891;28;20216;-93
2022/11/06 07:48:32;;;;;;;3.77;3.33;;;11.30;99.90;;;;;;4972292;28;20219;-92
2022/11/06 07:51:00;;;;;;;4.13;3.43;;;11.20;99.90;;;;;;4971987;28;20247;-91
2022/11/06 07:53:26;;;;;;;6.13;3.23;;;11.20;99.90;;;;;;4988970;28;20176;-92
2022/11/06 07:55:54;;;;;;;3.20;2.90;;;11.30;99.90;;;;;;4971975;28;20251;-90
2022/11/06 07:58:21;;;;;;;4.33;2.63;;;11.20;99.90;;;;;;4988451;28;20224;-91
2022/11/06 08:00:48;;;;;;;8.57;4.53;;;11.30;99.90;;;;;;4964114;28;20734;-91
2022/11/06 08:03:14;;;;;;;4.70;3.13;;;11.30;99.90;;;;;;4987063;28;20200;-91
2022/11/06 08:05:40;;;;;;;4.20;3.30;;;11.30;99.90;;;;;;4974034;28;20621;-91
2022/11/06 08:08:06;;;;;;;11.73;4.07;;;11.30;99.90;;;;;;4971372;28;20753;-91
2022/11/06 08:10:31;;;;;;;3.43;2.37;;;11.30;99.90;;;;;;4987492;28;20818;-92
2022/11/06 08:13:01;;;;;;;2.97;2.67;;;11.30;99.90;;;;;;4986593;28;20220;-91
2022/11/06 08:15:26;;;;;;;3.17;2.83;;;11.30;99.90;;;;;;4971633;28;20258;-92
2022/11/06 08:17:52;;;;;;;3.10;2.83;;;11.30;99.90;;;;;;4956410;28;20224;-91
2022/11/06 08:20:18;;;;;;;4.37;3.07;;;11.30;99.90;;;;;;4955732;28;20230;-90
2022/11/06 08:22:44;;;;;;;3.50;3.20;;;11.30;99.90;;;;;;4955141;28;20235;-93
2022/11/06 08:25:10;;;;;;;4.40;2.87;;;11.20;99.90;;;;;;4971051;28;20688;-91
2022/11/06 08:27:36;;;;;;;3.47;2.40;;;11.20;99.90;;;;;;4955020;28;20220;-90
2022/11/06 08:30:03;;;;;;;2.27;1.97;;;11.30;99.90;;;;;;4954150;28;20221;-91
2022/11/06 08:32:29;;;;;;;1.33;1.23;;;11.20;99.90;;;;;;4987580;28;20188;-90
2022/11/06 08:34:55;;;;;;;4.53;2.10;;;11.20;99.90;;;;;;4954821;28;20227;-91
2022/11/06 08:37:21;;;;;;;3.90;2.70;;;11.20;99.90;;;;;;4954809;28;20247;-90
2022/11/06 08:39:47;;;;;;;4.47;2.40;;;11.20;99.90;;;;;;4954755;28;20235;-90
2022/11/06 08:42:12;;;;;;;2.83;2.57;;;11.20;99.90;;;;;;4947082;28;20279;-91
2022/11/06 08:44:41;;;;;;;3.23;2.00;;;11.20;99.90;;;;;;4971588;28;20196;-90
2022/11/06 08:47:07;;;;;;;3.93;1.90;;;11.20;99.90;;;;;;4967409;28;20215;-91
2022/11/06 08:49:33;;;;;;;2.20;1.70;;;11.20;99.90;;;;;;5002103;28;20238;-91
2022/11/06 08:51:59;;;;;;;6.37;1.90;;;11.20;99.90;;;;;;4987264;28;20204;-91
2022/11/06 08:54:25;;;;;;;6.33;3.57;;;11.30;99.90;;;;;;4986715;28;20224;-90
2022/11/06 08:56:51;;;;;;;4.03;3.33;;;11.30;99.90;;;;;;4954431;28;20339;-93
2022/11/06 08:59:16;;;;;;;4.77;2.53;;;11.30;99.90;;;;;;4955227;28;20645;-90
2022/11/06 09:01:42;;;;;;;5.43;2.70;;;11.30;99.90;;;;;;4971251;28;20188;-93
2022/11/06 09:04:09;;;;;;;2.07;1.70;;;11.30;99.90;;;;;;4954609;28;20240;-90
2022/11/06 09:06:35;;;;;;;2.57;2.37;;;11.30;99.90;;;;;;4987193;28;20224;-93
2022/11/06 09:09:01;;;;;;;4.90;1.60;;;11.40;99.90;;;;;;4986503;28;20551;-93
2022/11/06 09:11:26;;;;;;;11.87;6.53;;;11.40;99.90;;;;;;4954486;28;20219;-93
2022/11/06 09:13:52;;;;;;;3.97;2.77;;;11.40;99.90;;;;;;4955368;28;20200;-90
2022/11/06 09:16:18;;;;;;;2.90;2.07;;;11.40;99.90;;;;;;4953871;28;20254;-92
2022/11/06 09:18:44;;;;;;;5.87;2.63;;;11.40;99.90;;;;;;4954951;28;20248;-91
2022/11/06 09:21:10;;;;;;;3.03;2.03;;;11.40;99.90;;;;;;4986126;28;20278;-92
2022/11/06 09:23:35;;;;;;;3.17;2.13;;;11.40;99.90;;;;;;4986686;28;20242;-91
2022/11/06 09:26:01;;;;;;;2.83;1.80;;;11.40;99.90;;;;;;4955446;28;20191;-91
2022/11/06 09:28:27;;;;;;;4.17;2.07;;;11.40;99.90;;;;;;4970222;28;20215;-90
2022/11/06 09:30:54;;;;;;;5.10;2.77;;;11.40;99.90;;;;;;4954130;28;20228;-92
2022/11/06 09:33:20;;;;;;;3.43;2.60;;;11.30;99.90;;;;;;4953907;28;20277;-91
2022/11/06 09:35:45;;;;;;;2.10;2.00;;;11.40;99.90;;;;;;4970313;28;21089;-93
2022/11/06 09:38:14;;;;;;;2.00;1.77;;;11.30;99.90;;;;;;4954397;28;20196;-92
2022/11/06 09:40:53;;;;;;;2.53;2.33;;;11.30;99.90;;;;;;4971153;28;20192;-91
2022/11/06 09:43:30;;;;;;;12.53;3.73;;;11.40;99.90;;;;;;4985995;28;20247;-92
2022/11/06 09:46:17;;;;;;;1.37;1.30;;;11.30;99.90;;;;;;4985465;28;20246;-91
2022/11/06 09:48:51;;;;;;;2.23;1.83;;;11.30;99.90;;;;;;4985221;28;20303;-92
2022/11/06 09:51:37;;;;;;;1.87;1.70;;;11.30;99.90;;;;;;4985221;28;20689;-92
2022/11/06 09:54:27;;;;;;;4.30;2.23;;;11.40;99.90;;;;;;4985422;28;20271;-91
2022/11/06 09:57:10;;;;;;;2.80;2.17;;;11.40;99.90;;;;;;4985830;28;20212;-91
2022/11/06 09:59:40;;;;;;;2.47;1.80;;;11.40;99.90;;;;;;4985763;28;20212;-92
2022/11/06 10:02:24;;;;;;;1.63;1.50;;;11.40;99.90;;;;;;4968140;28;20182;-93
2022/11/06 10:05:04;;;;;;;3.83;3.53;;;11.40;99.90;;;;;;4984619;28;20187;-92
2022/11/06 10:07:40;;;;;;;2.50;2.30;;;11.40;99.90;;;;;;5003593;28;20215;-91
2022/11/06 10:10:14;;;;;;;6.37;1.97;;;11.40;99.90;;;;;;4987638;28;20219;-95
2022/11/06 10:13:01;;;;;;;2.33;2.07;;;11.40;99.90;;;;;;4988259;28;21279;-91
2022/11/06 10:15:31;;;;;;;4.10;2.33;;;11.50;99.90;;;;;;5003759;28;20219;-91
2022/11/06 10:18:30;;;;;;;6.93;2.27;;;11.50;99.90;;;;;;4987703;28;20220;-92
2022/11/06 10:21:28;;;;;;;3.93;3.10;;;11.40;99.90;;;;;;4988170;28;20295;-93
2022/11/06 10:23:58;;;;;;;2.03;1.83;;;11.50;99.90;;;;;;5004048;28;20265;-94
2022/11/06 10:26:35;;;;;;;3.00;1.87;;;11.50;99.90;;;;;;4988398;28;20223;-92
2022/11/06 10:29:20;;;;;;;1.80;1.07;;;11.50;99.90;;;;;;5004009;28;20536;-93
2022/11/06 10:32:19;;;;;;;1.10;1.00;;;11.50;99.90;;;;;;4987738;28;20219;-94
2022/11/06 10:34:56;;;;;;;1.03;1.00;;;11.50;99.90;;;;;;4988970;28;20327;-92
2022/11/06 10:37:31;;;;;;;2.70;1.47;;;11.50;99.90;;;;;;4986949;28;20227;-93
2022/11/06 10:39:58;;;;;;;1.20;1.10;;;11.50;99.90;;;;;;4986953;28;20215;-93
2022/11/06 10:42:37;;;;;;;2.23;1.77;;;11.50;99.90;;;;;;4987688;28;20227;-93
2022/11/06 10:45:07;;;;;;;2.40;2.20;;;11.60;99.90;;;;;;5002730;28;20262;-94
2022/11/06 10:47:51;;;;;;;3.53;3.07;;;11.50;99.90;;;;;;4986875;28;20649;-93
2022/11/06 10:50:17;;;;;;;2.43;1.37;;;11.60;99.90;;;;;;4987496;28;20176;-93
2022/11/06 10:53:10;;;;;;;1.40;1.30;;;11.60;99.90;;;;;;4988883;28;20613;-93
2022/11/06 10:55:41;;;;;;;1.33;1.27;;;11.60;99.90;;;;;;4987769;28;20568;-93
2022/11/06 10:58:34;;;;;;;1.43;1.33;;;11.60;99.90;;;;;;4988733;28;20312;-92
2022/11/06 11:01:04;;;;;;;2.43;1.83;;;11.70;99.90;;;;;;4989673;28;20298;-94
2022/11/06 11:03:38;;;;;;;2.93;2.63;;;11.70;99.90;;;;;;5006588;28;20208;-94
2022/11/06 11:06:05;;;;;;;2.67;2.47;;;11.80;99.90;;;;;;4977153;28;20327;-94
2022/11/06 11:08:39;;;;;;;2.20;1.87;;;11.80;99.90;;;;;;4987852;28;20297;-93
2022/11/06 11:11:14;;;;;;;1.67;1.57;;;11.80;99.90;;;;;;4988444;28;20545;-91
2022/11/06 11:13:45;;;;;;;3.50;2.37;;;11.90;99.90;;;;;;5004923;28;20987;-93
2022/11/06 11:16:41;;;;;;;1.70;1.60;;;11.90;99.90;;;;;;4988987;28;20719;-93
2022/11/06 11:19:28;;;;;;;5.13;1.63;;;11.90;99.90;;;;;;4987420;28;20216;-92
2022/11/06 11:21:59;;;;;;;2.60;2.37;;;11.90;99.90;;;;;;4987895;28;20235;-95
2022/11/06 11:24:26;;;;;;;4.90;2.00;;;11.90;99.90;;;;;;4986958;28;20232;-92
2022/11/06 11:27:00;;;;;;;4.87;1.70;;;12.00;99.90;;;;;;4979321;28;20607;-94
2022/11/06 11:29:51;;;;;;;5.43;2.77;;;12.00;99.90;;;;;;4989363;28;20227;-96
2022/11/06 11:32:20;;;;;;;1.50;1.40;;;12.10;99.90;;;;;;4988596;28;20245;-94
2022/11/06 11:34:54;;;;;;;8.87;3.57;;;12.10;99.90;;;;;;4989408;28;20271;-93
2022/11/06 11:37:32;;;;;;;8.10;2.63;;;12.20;99.90;;;;;;4972510;28;20235;-89
2022/11/06 11:40:18;;;;;;;2.13;1.60;;;12.20;99.90;;;;;;4987081;28;20230;-92
2022/11/06 11:42:44;;;;;;;4.33;2.63;;;12.20;99.90;;;;;;4987784;28;20235;-92
2022/11/06 11:45:10;;;;;;;4.73;3.07;;;12.30;99.90;;;;;;4957366;28;20212;-92
2022/11/06 11:47:42;;;;;;;3.43;2.17;;;12.30;99.90;;;;;;4991370;28;20218;-93
2022/11/06 11:50:23;;;;;;;4.50;2.00;;;12.30;99.90;;;;;;4989322;28;20176;-92
2022/11/06 11:53:00;;;;;;;1.77;1.67;;;12.30;99.90;;;;;;5003824;28;20214;-91
2022/11/06 11:55:28;;;;;;;3.63;1.90;;;12.30;99.90;;;;;;4986838;28;21051;-93
2022/11/06 11:58:32;;;;;;;2.40;2.13;;;12.40;99.90;;;;;;4986078;28;20220;-92
2022/11/06 12:01:01;;;;;;;2.83;2.10;;;12.40;99.90;;;;;;4966520;28;20219;-92
2022/11/06 12:03:37;;;;;;;1.47;1.37;;;12.50;99.90;;;;;;4987518;28;20312;-92
2022/11/06 12:06:09;;;;;;;2.50;2.30;;;12.50;99.90;;;;;;4991003;28;20369;-94
2022/11/06 12:08:38;;;;;;;2.53;1.63;;;12.50;99.90;;;;;;4971040;28;20723;-95
2022/11/06 12:11:05;;;;;;;4.60;2.47;;;12.50;99.90;;;;;;4987494;28;20214;-94
2022/11/06 12:13:32;;;;;;;3.47;2.53;;;12.60;99.90;;;;;;4987275;28;20636;-92
2022/11/06 12:16:04;;;;;;;4.37;1.73;;;12.60;99.90;;;;;;4987704;28;20223;-93
2022/11/06 12:18:44;;;;;;;6.77;2.00;;;12.70;99.90;;;;;;4986628;28;20244;-92
2022/11/06 12:21:36;;;;;;;2.30;1.57;;;12.60;99.90;;;;;;5001840;28;20213;-91
2022/11/06 12:24:17;;;;;;;1.57;1.47;;;12.70;99.90;;;;;;5002540;28;20737;-92
2022/11/06 12:26:54;;;;;;;1.30;1.20;;;12.70;99.90;;;;;;4985253;28;20227;-93
2022/11/06 12:29:22;;;;;;;2.07;1.87;;;12.70;99.90;;;;;;5001865;28;21276;-92
2022/11/06 12:31:57;;;;;;;1.50;1.40;;;12.80;99.90;;;;;;4986233;28;20196;-93
2022/11/06 12:35:06;;;;;;;1.93;1.30;;;12.80;99.90;;;;;;4985579;28;20711;-92
2022/11/06 12:38:10;;;;;;;2.10;1.90;;;12.90;99.90;;;;;;4985882;28;20200;-93
2022/11/06 12:40:39;;;;;;;2.43;1.90;;;12.90;99.90;;;;;;4986087;28;21168;-91
2022/11/06 12:43:39;;;;;;;2.40;1.40;;;13.00;99.90;;;;;;4985434;28;20219;-93
2022/11/06 12:46:23;;;;;;;1.70;1.60;;;12.90;99.90;;;;;;4985338;28;20216;-93
2022/11/06 12:48:48;;;;;;;1.27;0.90;;;12.90;99.90;;;;;;5002199;28;20219;-96
2022/11/06 12:52:02;;;;;;;1.53;1.33;;;12.80;99.90;;;;;;4986004;28;20220;-93
2022/11/06 12:54:53;;;;;;;1.53;1.40;;;12.80;99.90;;;;;;4985714;28;20277;-95
2022/11/06 12:57:21;;;;;;;1.40;1.17;;;12.70;99.90;;;;;;4986954;28;20211;-95
2022/11/06 12:59:59;;;;;;;0.97;0.83;;;12.60;99.90;;;;;;5005262;28;20788;-94
2022/11/06 13:03:02;;;;;;;1.50;1.13;;;12.60;99.90;;;;;;5007155;28;20223;-96
2022/11/06 13:06:00;;;;;;;4.07;1.50;;;12.50;99.90;;;;;;4991471;28;20294;-95
2022/11/06 13:08:51;;;;;;;2.10;1.77;;;12.50;99.90;;;;;;4991877;28;20291;-94
2022/11/06 13:11:40;;;;;;;2.30;1.30;;;12.50;99.90;;;;;;4991454;28;20196;-95
2022/11/06 13:14:20;;;;;;;4.40;1.50;;;12.50;99.90;;;;;;4988069;28;20184;-95
2022/11/06 13:16:52;;;;;;;1.70;1.10;;;12.40;99.90;;;;;;4987563;28;20516;-93
2022/11/06 13:19:40;;;;;;;1.57;0.87;;;12.40;99.90;;;;;;5004232;28;20299;-94
2022/11/06 13:22:23;;;;;;;2.97;1.80;;;12.40;99.90;;;;;;4987342;28;20231;-95
2022/11/06 13:25:23;;;;;;;1.47;1.37;;;12.40;99.90;;;;;;5006801;28;20250;-95